Time;durP1;ratioP1;P1;durP2;ratioP2;P2;SDS_P1;SDS_P2;PMS_P1;PMS_P2;Temp;Humidity;BMP_temperature;BMP_pressure;BME280_temperature;BME280_humidity;BME280_pressure;Samples;Min_cycle;Max_cycle;Signal;HPM_P1;HPM_P2
2022/10/26 00:02:18;;;;;;;25.05;5.07;;;24.10;99.90;;;;;;5153661;27;20041;-55
2022/10/26 00:04:43;;;;;;;23.95;5.22;;;24.10;99.90;;;;;;5153279;27;20060;-55
2022/10/26 00:07:09;;;;;;;26.27;5.97;;;24.10;99.90;;;;;;5149650;27;20034;-55
2022/10/26 00:09:35;;;;;;;21.05;4.55;;;24.10;99.90;;;;;;5149382;27;20509;-56
2022/10/26 00:12:02;;;;;;;23.52;4.88;;;24.10;99.90;;;;;;5137779;27;20027;-56
2022/10/26 00:14:27;;;;;;;18.08;5.25;;;24.10;99.90;;;;;;5152976;27;20015;-57
2022/10/26 00:16:53;;;;;;;25.13;5.65;;;24.10;99.90;;;;;;5153079;27;20096;-56
2022/10/26 00:19:19;;;;;;;15.20;4.72;;;24.10;99.90;;;;;;5153343;27;20011;-54
2022/10/26 00:21:45;;;;;;;25.88;5.93;;;24.10;99.90;;;;;;5142440;27;20463;-54
2022/10/26 00:24:11;;;;;;;23.58;5.25;;;24.10;99.90;;;;;;5126578;27;20016;-54
2022/10/26 00:26:38;;;;;;;20.42;5.05;;;24.10;99.90;;;;;;5147082;27;20034;-53
2022/10/26 00:29:04;;;;;;;19.10;5.63;;;24.10;99.90;;;;;;5143472;27;20023;-54
2022/10/26 00:31:30;;;;;;;25.95;5.63;;;24.20;99.90;;;;;;5134043;27;20029;-53
2022/10/26 00:33:56;;;;;;;23.23;4.60;;;24.20;99.90;;;;;;5140901;27;20113;-54
2022/10/26 00:36:23;;;;;;;15.82;4.68;;;24.20;99.90;;;;;;5138548;27;20076;-54
2022/10/26 00:38:50;;;;;;;25.20;5.28;;;24.20;99.90;;;;;;5137925;27;20015;-54
2022/10/26 00:41:18;;;;;;;13.93;4.97;;;24.20;99.90;;;;;;5129792;27;20034;-55
2022/10/26 00:43:44;;;;;;;27.83;5.57;;;24.20;99.90;;;;;;5152948;27;20007;-55
2022/10/26 00:46:20;;;;;;;24.17;5.65;;;24.20;99.90;;;;;;5145044;27;20072;-54
2022/10/26 00:48:50;;;;;;;15.07;5.00;;;24.20;99.90;;;;;;5148899;27;20017;-53
2022/10/26 00:51:36;;;;;;;17.90;5.30;;;24.20;99.90;;;;;;5143409;27;20411;-55
2022/10/26 00:54:05;;;;;;;18.42;6.28;;;24.20;99.90;;;;;;5150230;27;20086;-56
2022/10/26 00:56:33;;;;;;;25.60;5.43;;;24.20;99.90;;;;;;5153107;27;20471;-53
2022/10/26 01:01:45;;;;;;;19.70;4.82;;;24.30;99.90;;;;;;5070208;28;20079;-44
2022/10/26 01:04:13;;;;;;;16.63;4.35;;;24.20;99.90;;;;;;5053169;28;20024;-43
2022/10/26 01:06:40;;;;;;;18.10;4.07;;;24.20;99.90;;;;;;5070920;28;20024;-43
2022/10/26 01:09:06;;;;;;;11.60;3.90;;;24.20;99.90;;;;;;5071244;28;20025;-43
2022/10/26 01:11:32;;;;;;;11.63;3.60;;;24.30;99.90;;;;;;5071378;28;20043;-43
2022/10/26 01:14:00;;;;;;;20.90;3.88;;;24.30;99.90;;;;;;5071097;28;20389;-44
2022/10/26 01:16:35;;;;;;;16.05;4.00;;;24.40;99.90;;;;;;5071314;28;20041;-46
2022/10/26 01:19:41;;;;;;;13.25;3.50;;;24.40;99.90;;;;;;5071354;28;20024;-45
2022/10/26 01:22:18;;;;;;;18.92;4.05;;;24.50;99.90;;;;;;5060515;28;20037;-45
2022/10/26 01:24:44;;;;;;;18.20;3.50;;;24.50;99.90;;;;;;5061378;28;20029;-44
2022/10/26 01:27:28;;;;;;;22.92;4.45;;;24.50;99.90;;;;;;5072273;28;20110;-45
2022/10/26 01:30:18;;;;;;;17.45;3.45;;;24.60;99.90;;;;;;5064933;28;20380;-45
2022/10/26 01:33:02;;;;;;;22.65;3.63;;;24.60;99.90;;;;;;5074667;28;20025;-44
2022/10/26 01:35:34;;;;;;;13.48;3.20;;;24.70;99.90;;;;;;5074068;28;20029;-44
2022/10/26 01:38:21;;;;;;;12.23;3.40;;;24.70;99.90;;;;;;5074708;28;20372;-45
2022/10/26 01:41:12;;;;;;;13.40;3.33;;;24.80;99.90;;;;;;5074319;28;20036;-45
2022/10/26 01:44:03;;;;;;;14.35;3.30;;;24.90;99.90;;;;;;5068551;28;20029;-45
2022/10/26 01:46:35;;;;;;;16.38;3.40;;;24.90;99.90;;;;;;5056434;28;20028;-44
2022/10/26 01:49:09;;;;;;;25.23;5.15;;;25.00;99.90;;;;;;5073216;28;20035;-43
2022/10/26 01:51:36;;;;;;;17.88;3.50;;;25.00;99.90;;;;;;5061742;28;20094;-45
2022/10/26 01:54:02;;;;;;;11.80;3.65;;;25.00;99.90;;;;;;5060322;28;20055;-46
2022/10/26 01:56:30;;;;;;;13.73;3.20;;;25.10;99.90;;;;;;5043097;28;20477;-44
2022/10/26 02:02:08;;;;;;;19.08;3.35;;;25.10;99.90;;;;;;5058069;28;20042;-48
2022/10/26 02:04:40;;;;;;;9.70;2.55;;;25.20;99.90;;;;;;5052736;28;20112;-45
2022/10/26 02:07:23;;;;;;;14.60;3.03;;;25.20;99.90;;;;;;5052882;28;20052;-46
2022/10/26 02:10:07;;;;;;;16.20;2.70;;;25.20;99.90;;;;;;5064298;28;20358;-48
2022/10/26 02:12:52;;;;;;;8.98;2.70;;;25.30;99.90;;;;;;5050555;28;20040;-47
2022/10/26 02:15:42;;;;;;;9.43;3.03;;;25.30;99.90;;;;;;5053644;28;20092;-50
2022/10/26 02:18:23;;;;;;;10.23;3.42;;;25.30;99.90;;;;;;5052975;28;20095;-47
2022/10/26 02:20:55;;;;;;;14.10;2.72;;;25.30;99.90;;;;;;5053256;28;20021;-46
2022/10/26 02:23:25;;;;;;;12.07;3.60;;;25.30;99.90;;;;;;5043656;28;20151;-47
2022/10/26 02:25:56;;;;;;;13.95;3.20;;;25.30;99.90;;;;;;5052785;28;20028;-46
2022/10/26 02:28:27;;;;;;;10.93;2.80;;;25.30;99.90;;;;;;5051997;28;20473;-47
2022/10/26 02:30:56;;;;;;;11.85;2.42;;;25.30;99.90;;;;;;5053581;28;20043;-46
2022/10/26 02:33:23;;;;;;;17.65;3.83;;;25.30;99.90;;;;;;5053487;28;20028;-46
2022/10/26 02:35:51;;;;;;;;;;;25.30;99.90;;;;;;5053245;28;20036;-46
2022/10/26 02:38:19;;;;;;;16.52;3.00;;;25.30;99.90;;;;;;5053258;28;19909;-47
2022/10/26 02:40:47;;;;;;;18.98;3.13;;;25.20;99.90;;;;;;5051978;28;20047;-48
2022/10/26 02:43:19;;;;;;;11.27;3.42;;;25.30;99.90;;;;;;5053025;28;20383;-47
2022/10/26 02:45:55;;;;;;;22.77;4.22;;;25.20;99.90;;;;;;5053231;28;20017;-48
2022/10/26 02:48:22;;;;;;;10.05;2.95;;;25.20;99.90;;;;;;5049460;28;20435;-48
2022/10/26 02:50:59;;;;;;;13.48;2.95;;;25.20;99.90;;;;;;5053142;28;20097;-48
2022/10/26 02:53:33;;;;;;;9.05;3.60;;;25.30;99.90;;;;;;5053078;28;20043;-47
2022/10/26 02:56:05;;;;;;;17.95;4.30;;;25.30;99.90;;;;;;5035838;28;20033;-47
2022/10/26 02:58:38;;;;;;;13.27;3.67;;;25.30;99.90;;;;;;5052006;28;20025;-47
2022/10/26 03:01:04;;;;;;;16.55;2.53;;;25.40;99.90;;;;;;5053055;22;20057;-45
2022/10/26 03:03:29;;;;;;;11.27;3.33;;;25.40;99.90;;;;;;5031678;28;20079;-45
2022/10/26 03:05:55;;;;;;;14.20;3.92;;;25.50;99.90;;;;;;5032160;28;20091;-46
2022/10/26 03:08:22;;;;;;;15.07;3.33;;;25.50;99.90;;;;;;5031458;28;20029;-43
2022/10/26 03:10:48;;;;;;;26.40;3.03;;;25.50;99.90;;;;;;5048119;28;20105;-44
2022/10/26 03:13:13;;;;;;;15.65;4.38;;;25.50;99.90;;;;;;5032401;28;20100;-44
2022/10/26 03:15:39;;;;;;;11.38;3.50;;;25.50;99.90;;;;;;5030590;28;20432;-45
2022/10/26 03:18:06;;;;;;;14.95;2.92;;;25.50;99.90;;;;;;5030835;28;20057;-45
2022/10/26 03:20:32;;;;;;;12.93;3.53;;;25.50;99.90;;;;;;5030702;28;20031;-44
2022/10/26 03:22:57;;;;;;;10.30;3.45;;;25.50;99.90;;;;;;5026843;28;20115;-44
2022/10/26 03:25:24;;;;;;;15.68;3.25;;;25.50;99.90;;;;;;5029940;28;20013;-45
2022/10/26 03:28:00;;;;;;;8.65;2.60;;;25.60;99.90;;;;;;5029117;28;20087;-44
2022/10/26 03:30:27;;;;;;;9.63;2.73;;;25.60;99.90;;;;;;5019585;28;20057;-45
2022/10/26 03:32:53;;;;;;;11.38;3.00;;;25.60;99.90;;;;;;5018834;28;20251;-45
2022/10/26 03:35:19;;;;;;;15.13;3.03;;;25.60;99.90;;;;;;5032408;28;20025;-45
2022/10/26 03:37:45;;;;;;;14.25;2.53;;;25.60;99.90;;;;;;5032414;28;20151;-45
2022/10/26 03:40:11;;;;;;;16.48;2.67;;;25.60;99.90;;;;;;5032367;28;20493;-45
2022/10/26 03:42:37;;;;;;;11.43;3.20;;;25.60;99.90;;;;;;5032265;28;20025;-45
2022/10/26 03:45:04;;;;;;;14.82;3.25;;;25.60;99.90;;;;;;5032619;28;20104;-45
2022/10/26 03:47:30;;;;;;;18.52;3.42;;;25.60;99.90;;;;;;5031974;28;20018;-45
2022/10/26 03:49:56;;;;;;;14.15;2.80;;;25.60;99.90;;;;;;5032306;28;20048;-46
2022/10/26 03:52:23;;;;;;;15.75;3.50;;;25.60;99.90;;;;;;5032244;28;20104;-45
2022/10/26 03:54:50;;;;;;;14.90;2.70;;;25.50;99.90;;;;;;5032141;28;20027;-46
2022/10/26 03:57:15;;;;;;;10.20;2.78;;;25.50;99.90;;;;;;5031751;28;20041;-45
2022/10/26 03:59:41;;;;;;;12.65;3.88;;;25.50;99.90;;;;;;5070698;22;20079;-46
2022/10/26 04:02:07;;;;;;;10.90;3.28;;;25.40;99.90;;;;;;5051561;28;20711;-46
2022/10/26 04:04:33;;;;;;;12.75;2.38;;;25.40;99.90;;;;;;5052250;28;20495;-46
2022/10/26 04:06:59;;;;;;;9.27;2.47;;;25.40;99.90;;;;;;5050819;28;20036;-47
2022/10/26 04:09:24;;;;;;;13.82;3.05;;;25.40;99.90;;;;;;5052089;28;20052;-47
2022/10/26 04:11:50;;;;;;;12.95;3.30;;;25.40;99.90;;;;;;5034005;28;20033;-47
2022/10/26 04:14:16;;;;;;;14.25;3.13;;;25.40;99.90;;;;;;5052072;28;20017;-47
2022/10/26 04:16:41;;;;;;;12.60;3.22;;;25.30;99.90;;;;;;5051798;28;20121;-47
2022/10/26 04:19:07;;;;;;;16.83;3.03;;;25.30;99.90;;;;;;5051928;28;20025;-47
2022/10/26 04:21:34;;;;;;;10.90;3.15;;;25.30;99.90;;;;;;5052364;28;20485;-47
2022/10/26 04:24:00;;;;;;;10.93;2.72;;;25.30;99.90;;;;;;5050830;28;20379;-47
2022/10/26 04:26:26;;;;;;;12.98;3.22;;;25.30;99.90;;;;;;5051876;28;20029;-47
2022/10/26 04:28:51;;;;;;;13.07;3.95;;;25.30;99.90;;;;;;5051846;28;20440;-46
2022/10/26 04:31:17;;;;;;;10.90;2.67;;;25.30;99.90;;;;;;5051824;28;20037;-46
2022/10/26 04:33:43;;;;;;;17.20;3.17;;;25.30;99.90;;;;;;5051809;28;20104;-46
2022/10/26 04:36:09;;;;;;;10.10;2.92;;;25.30;99.90;;;;;;5051573;28;20037;-46
2022/10/26 04:38:35;;;;;;;19.48;3.67;;;25.30;99.90;;;;;;5051930;28;20025;-47
2022/10/26 04:41:01;;;;;;;12.75;2.88;;;25.20;99.90;;;;;;5051857;28;20020;-47
2022/10/26 04:43:26;;;;;;;16.88;3.35;;;25.20;99.90;;;;;;5051781;28;20044;-47
2022/10/26 04:45:56;;;;;;;15.85;2.95;;;25.20;99.90;;;;;;5051712;28;20049;-46
2022/10/26 04:48:23;;;;;;;13.40;3.88;;;25.20;99.90;;;;;;5051790;28;20120;-46
2022/10/26 04:50:49;;;;;;;18.70;3.53;;;25.30;99.90;;;;;;5051524;28;20076;-46
2022/10/26 04:53:15;;;;;;;14.57;3.88;;;25.20;99.90;;;;;;5051667;28;20021;-46
2022/10/26 04:55:41;;;;;;;10.85;2.90;;;25.20;99.90;;;;;;5051626;28;20032;-46
2022/10/26 04:58:07;;;;;;;10.88;3.53;;;25.20;99.90;;;;;;5052750;28;20380;-46
2022/10/26 05:00:33;;;;;;;16.55;3.55;;;25.20;99.90;;;;;;5055214;28;20037;-46
2022/10/26 05:03:01;;;;;;;19.38;3.58;;;25.20;99.90;;;;;;5055371;28;20059;-46
2022/10/26 05:05:29;;;;;;;18.10;3.08;;;25.20;99.90;;;;;;5055354;28;20068;-46
2022/10/26 05:07:56;;;;;;;14.70;3.65;;;25.20;99.90;;;;;;5055170;28;20017;-46
2022/10/26 05:10:22;;;;;;;17.45;3.60;;;25.20;99.90;;;;;;5055553;28;20376;-47
2022/10/26 05:12:52;;;;;;;14.05;3.40;;;25.20;99.90;;;;;;5055123;28;20021;-46
2022/10/26 05:15:18;;;;;;;12.02;3.42;;;25.30;99.90;;;;;;5054971;28;20043;-46
2022/10/26 05:17:44;;;;;;;15.70;3.15;;;25.30;99.90;;;;;;5055319;28;20111;-46
2022/10/26 05:20:12;;;;;;;18.55;3.95;;;25.30;99.90;;;;;;5055292;28;20104;-46
2022/10/26 05:22:39;;;;;;;10.02;3.25;;;25.30;99.90;;;;;;5055216;28;20021;-46
2022/10/26 05:25:05;;;;;;;19.55;3.40;;;25.30;99.90;;;;;;5054811;28;20459;-46
2022/10/26 05:27:31;;;;;;;19.25;4.00;;;25.30;99.90;;;;;;5054750;28;20021;-46
2022/10/26 05:29:56;;;;;;;11.88;2.92;;;25.30;99.90;;;;;;5054870;28;20388;-46
2022/10/26 05:32:22;;;;;;;15.75;3.45;;;25.30;99.90;;;;;;5054757;28;20082;-47
2022/10/26 05:34:48;;;;;;;13.98;2.70;;;25.20;99.90;;;;;;5054790;28;20028;-46
2022/10/26 05:37:13;;;;;;;13.90;3.70;;;25.20;99.90;;;;;;5054674;28;20037;-46
2022/10/26 05:39:39;;;;;;;17.25;4.10;;;25.20;99.90;;;;;;5054959;28;20017;-46
2022/10/26 05:42:05;;;;;;;29.63;4.47;;;25.20;99.90;;;;;;5054632;28;20021;-46
2022/10/26 05:44:31;;;;;;;14.35;3.83;;;25.20;99.90;;;;;;5053233;28;20112;-46
2022/10/26 05:46:57;;;;;;;26.95;4.35;;;25.20;99.90;;;;;;5054499;28;20464;-47
2022/10/26 05:49:22;;;;;;;16.75;4.15;;;25.20;99.90;;;;;;5054473;28;20064;-46
2022/10/26 05:51:48;;;;;;;26.35;4.93;;;25.10;99.90;;;;;;5054485;28;20060;-45
2022/10/26 05:54:14;;;;;;;19.48;3.78;;;25.20;99.90;;;;;;5054499;28;20104;-46
2022/10/26 05:56:41;;;;;;;27.63;4.70;;;25.10;99.90;;;;;;5054720;28;20139;-46
2022/10/26 05:59:14;;;;;;;24.67;6.83;;;25.10;99.90;;;;;;5054460;28;20017;-46
2022/10/26 06:01:51;;;;;;;25.13;4.55;;;25.10;99.90;;;;;;5054503;28;20072;-47
2022/10/26 06:04:30;;;;;;;17.10;3.78;;;25.10;99.90;;;;;;5054356;28;20017;-46
2022/10/26 06:06:57;;;;;;;23.50;5.45;;;25.10;99.90;;;;;;5054343;28;20082;-46
2022/10/26 06:09:23;;;;;;;12.32;3.53;;;25.10;99.90;;;;;;5053866;28;20021;-46
2022/10/26 06:11:49;;;;;;;18.50;3.30;;;25.10;99.90;;;;;;5054046;28;20502;-46
2022/10/26 06:14:15;;;;;;;17.58;3.92;;;25.10;99.90;;;;;;5054194;28;20029;-46
2022/10/26 06:17:18;;;;;;;15.35;4.20;;;25.10;99.90;;;;;;5054093;28;20029;-47
2022/10/26 06:19:53;;;;;;;17.15;4.22;;;25.10;99.90;;;;;;5054091;28;20024;-46
2022/10/26 06:22:27;;;;;;;8.45;3.22;;;25.10;99.90;;;;;;5069154;28;20546;-47
2022/10/26 06:25:11;;;;;;;19.02;4.97;;;25.00;99.90;;;;;;5053727;28;20123;-46
2022/10/26 06:27:54;;;;;;;19.38;4.63;;;25.00;99.90;;;;;;5053601;28;20116;-46
2022/10/26 06:30:22;;;;;;;21.70;4.40;;;25.00;99.90;;;;;;5054023;28;20017;-46
2022/10/26 06:32:52;;;;;;;23.27;5.32;;;25.00;99.90;;;;;;5036051;28;20384;-46
2022/10/26 06:35:39;;;;;;;28.90;14.93;;;25.00;99.90;;;;;;5053672;28;20021;-45
2022/10/26 06:38:11;;;;;;;20.30;7.72;;;25.00;99.90;;;;;;5053765;28;20074;-46
2022/10/26 06:40:41;;;;;;;25.58;7.25;;;25.00;99.90;;;;;;5053529;28;20029;-45
2022/10/26 06:43:24;;;;;;;18.38;4.90;;;25.00;99.90;;;;;;5053480;28;20112;-46
2022/10/26 06:46:03;;;;;;;20.52;4.40;;;25.00;99.90;;;;;;5053489;28;20480;-46
2022/10/26 06:48:38;;;;;;;33.08;5.63;;;25.00;99.90;;;;;;5053460;28;20028;-46
2022/10/26 06:51:04;;;;;;;63.55;12.70;;;25.00;99.90;;;;;;5053423;28;20021;-46
2022/10/26 06:53:34;;;;;;;70.75;18.13;;;25.00;99.90;;;;;;5035610;28;20029;-46
2022/10/26 06:56:01;;;;;;;44.45;11.93;;;25.00;99.90;;;;;;5035298;28;20040;-46
2022/10/26 06:58:35;;;;;;;32.60;6.30;;;25.00;99.90;;;;;;5053256;28;20025;-46
2022/10/26 07:01:01;;;;;;;32.13;5.93;;;25.00;99.90;;;;;;5051827;28;20080;-46
2022/10/26 07:03:27;;;;;;;26.13;4.00;;;25.00;99.90;;;;;;5053128;28;20043;-46
2022/10/26 07:05:53;;;;;;;20.98;3.90;;;25.00;99.90;;;;;;5051853;28;20037;-47
2022/10/26 07:08:18;;;;;;;16.80;3.67;;;25.00;99.90;;;;;;5053049;28;20013;-47
2022/10/26 07:10:46;;;;;;;18.48;3.83;;;25.10;99.90;;;;;;5053309;28;20483;-46
2022/10/26 07:13:11;;;;;;;23.67;5.70;;;25.10;99.90;;;;;;5035130;28;20032;-47
2022/10/26 07:15:38;;;;;;;30.27;5.63;;;25.20;99.90;;;;;;5052880;28;20041;-47
2022/10/26 07:18:06;;;;;;;29.85;6.18;;;25.20;99.90;;;;;;5052983;28;20032;-46
2022/10/26 07:20:34;;;;;;;;;;;25.20;99.90;;;;;;5052552;28;20025;-46
2022/10/26 07:23:00;;;;;;;20.95;4.82;;;25.20;99.90;;;;;;5052737;28;19909;-47
2022/10/26 07:25:26;;;;;;;22.33;4.78;;;25.20;99.90;;;;;;5052525;28;20383;-47
2022/10/26 07:27:57;;;;;;;22.67;4.05;;;25.20;99.90;;;;;;5052674;28;20013;-46
2022/10/26 07:30:24;;;;;;;15.32;3.75;;;25.20;99.90;;;;;;5034762;28;20025;-47
2022/10/26 07:32:49;;;;;;;17.50;3.97;;;25.20;99.90;;;;;;5052550;28;20472;-47
2022/10/26 07:35:15;;;;;;;23.88;4.30;;;25.30;99.90;;;;;;5052855;28;20055;-46
2022/10/26 07:37:41;;;;;;;26.40;5.72;;;25.30;99.90;;;;;;5052578;28;20487;-47
2022/10/26 07:40:07;;;;;;;37.53;8.13;;;25.30;99.90;;;;;;5052394;28;20450;-47
2022/10/26 07:42:35;;;;;;;22.90;6.93;;;25.30;99.90;;;;;;5052479;28;20032;-46
2022/10/26 07:45:01;;;;;;;27.58;5.72;;;25.40;99.90;;;;;;5052380;28;20028;-47
2022/10/26 07:47:26;;;;;;;29.30;7.45;;;25.40;99.90;;;;;;5052256;28;20022;-47
2022/10/26 07:49:52;;;;;;;26.40;7.38;;;25.40;99.90;;;;;;5052188;28;20430;-47
2022/10/26 07:52:18;;;;;;;26.67;6.15;;;25.40;99.90;;;;;;5052394;28;20052;-47
2022/10/26 07:54:43;;;;;;;28.77;6.28;;;25.40;99.90;;;;;;5052393;28;20029;-46
2022/10/26 07:57:09;;;;;;;22.63;6.72;;;25.40;99.90;;;;;;5052036;28;20044;-47
2022/10/26 07:59:35;;;;;;;21.10;4.43;;;25.40;99.90;;;;;;5051861;28;20028;-47
2022/10/26 08:02:00;;;;;;;20.85;5.05;;;25.40;99.90;;;;;;5052159;28;20032;-47
2022/10/26 08:04:26;;;;;;;15.52;4.57;;;25.50;99.90;;;;;;5052081;28;20025;-47
2022/10/26 08:06:52;;;;;;;23.38;6.25;;;25.50;99.90;;;;;;5051919;28;20060;-46
2022/10/26 08:09:19;;;;;;;19.45;6.93;;;25.50;99.90;;;;;;5052145;28;20021;-47
2022/10/26 08:11:45;;;;;;;17.42;6.65;;;25.50;99.90;;;;;;5052097;28;20025;-46
2022/10/26 08:14:11;;;;;;;20.15;6.13;;;25.60;99.90;;;;;;5051849;28;20471;-46
2022/10/26 08:16:39;;;;;;;16.75;5.25;;;25.60;99.90;;;;;;5051815;28;20045;-47
2022/10/26 08:19:04;;;;;;;18.88;4.78;;;25.70;99.90;;;;;;5051910;28;20021;-47
2022/10/26 08:21:30;;;;;;;13.75;4.00;;;25.70;99.90;;;;;;5051756;28;20021;-46
2022/10/26 08:23:56;;;;;;;19.15;4.28;;;25.70;99.90;;;;;;5051759;28;20079;-47
2022/10/26 08:26:22;;;;;;;19.98;4.28;;;25.70;99.90;;;;;;5051851;28;20391;-48
2022/10/26 08:28:48;;;;;;;23.42;5.28;;;25.70;99.90;;;;;;5051809;28;20025;-47
2022/10/26 08:31:14;;;;;;;29.23;5.10;;;25.80;99.90;;;;;;5051564;28;20028;-46
2022/10/26 08:33:40;;;;;;;33.22;6.55;;;25.80;99.90;;;;;;5037552;28;20028;-46
2022/10/26 08:36:06;;;;;;;28.05;6.05;;;25.90;99.90;;;;;;5071032;28;20029;-46
2022/10/26 08:38:34;;;;;;;28.75;5.35;;;25.90;99.90;;;;;;5055827;28;20025;-46
2022/10/26 08:41:07;;;;;;;24.90;6.22;;;25.90;99.90;;;;;;5055853;28;20357;-46
2022/10/26 08:43:44;;;;;;;24.20;5.95;;;26.00;99.90;;;;;;5055867;28;20025;-46
2022/10/26 08:46:17;;;;;;;29.00;6.32;;;26.00;99.90;;;;;;5055573;28;20056;-47
2022/10/26 08:48:48;;;;;;;20.85;6.03;;;26.00;99.90;;;;;;5055464;28;20487;-47
2022/10/26 08:51:19;;;;;;;32.70;9.27;;;26.00;99.90;;;;;;5055538;28;20107;-46
2022/10/26 08:54:13;;;;;;;35.75;9.73;;;26.10;99.90;;;;;;5055587;28;20491;-46
2022/10/26 08:56:48;;;;;;;39.60;9.40;;;26.20;99.90;;;;;;5054335;28;20033;-46
2022/10/26 08:59:32;;;;;;;42.03;7.80;;;26.20;99.90;;;;;;5055333;28;20104;-47
2022/10/26 09:02:00;;;;;;;43.95;7.82;;;26.10;99.90;;;;;;5015575;28;20049;-47
2022/10/26 09:04:28;;;;;;;34.97;8.10;;;26.10;99.90;;;;;;5015615;28;20017;-47
2022/10/26 09:07:32;;;;;;;29.00;7.05;;;26.00;99.90;;;;;;5015713;28;20026;-46
2022/10/26 09:10:07;;;;;;;22.83;5.65;;;26.00;99.90;;;;;;5015607;28;20022;-47
2022/10/26 09:12:40;;;;;;;25.58;5.93;;;25.90;99.90;;;;;;5015527;28;20033;-47
2022/10/26 09:15:15;;;;;;;28.85;5.15;;;26.00;99.90;;;;;;5015366;28;20030;-47
2022/10/26 09:17:50;;;;;;;24.85;6.25;;;25.90;99.90;;;;;;5015347;28;20386;-47
2022/10/26 09:20:37;;;;;;;27.63;5.85;;;26.00;99.90;;;;;;5015341;28;20022;-47
2022/10/26 09:23:06;;;;;;;22.95;5.53;;;26.00;99.90;;;;;;5015348;28;20417;-47
2022/10/26 09:25:38;;;;;;;35.88;5.78;;;26.00;99.90;;;;;;5015321;28;20026;-47
2022/10/26 09:28:10;;;;;;;32.05;6.43;;;26.10;99.90;;;;;;5015216;28;20112;-47
2022/10/26 09:30:36;;;;;;;28.30;5.80;;;26.10;99.90;;;;;;5015271;28;20060;-47
2022/10/26 09:33:11;;;;;;;27.05;5.68;;;26.20;99.90;;;;;;5015114;28;20492;-47
2022/10/26 09:35:36;;;;;;;34.08;7.95;;;26.20;99.90;;;;;;5015011;28;20108;-47
2022/10/26 09:38:32;;;;;;;21.63;5.68;;;26.30;99.90;;;;;;5014966;28;20113;-47
2022/10/26 09:41:51;;;;;;;35.05;6.30;;;26.40;99.90;;;;;;5015155;28;20025;-47
2022/10/26 09:44:19;;;;;;;21.08;5.32;;;26.50;99.90;;;;;;4972922;28;20070;-47
2022/10/26 09:47:09;;;;;;;39.58;5.30;;;26.60;99.90;;;;;;4973984;28;20061;-46
2022/10/26 09:49:47;;;;;;;24.42;4.88;;;26.60;99.90;;;;;;4989919;28;20072;-47
2022/10/26 09:52:14;;;;;;;24.20;6.18;;;26.70;99.90;;;;;;5014797;28;20476;-47
2022/10/26 09:54:39;;;;;;;24.67;5.93;;;26.70;99.90;;;;;;5014683;28;20049;-47
2022/10/26 09:57:07;;;;;;;20.38;5.97;;;26.80;99.90;;;;;;5014710;28;20041;-47
2022/10/26 09:59:36;;;;;;;17.10;4.82;;;26.80;99.90;;;;;;5017688;28;20014;-46
2022/10/26 10:02:36;;;;;;;19.45;4.63;;;26.80;99.90;;;;;;5069532;28;20075;-47
2022/10/26 10:05:21;;;;;;;16.08;5.38;;;26.80;99.90;;;;;;5054283;28;20106;-46
2022/10/26 10:07:47;;;;;;;16.38;4.88;;;26.90;99.90;;;;;;5054198;28;20126;-46
2022/10/26 10:10:19;;;;;;;19.00;4.68;;;26.90;99.90;;;;;;5054131;28;20021;-47
2022/10/26 10:12:49;;;;;;;20.30;4.97;;;27.00;99.90;;;;;;5054246;28;20457;-46
2022/10/26 10:15:18;;;;;;;25.33;5.50;;;27.00;99.90;;;;;;5054062;28;20433;-46
2022/10/26 10:17:50;;;;;;;21.00;7.28;;;27.10;99.90;;;;;;5054017;28;20119;-47
2022/10/26 10:20:19;;;;;;;18.27;4.82;;;27.20;99.90;;;;;;5052927;28;20082;-47
2022/10/26 10:22:59;;;;;;;17.17;4.80;;;27.20;99.90;;;;;;5054133;28;20051;-47
2022/10/26 10:25:36;;;;;;;25.35;4.75;;;27.30;99.90;;;;;;5036217;28;20025;-46
2022/10/26 10:28:20;;;;;;;20.77;5.57;;;27.40;99.90;;;;;;5068943;28;20029;-47
2022/10/26 10:30:58;;;;;;;14.23;4.18;;;27.50;99.90;;;;;;5053518;28;20025;-46
2022/10/26 10:33:40;;;;;;;15.00;4.63;;;27.60;99.90;;;;;;5053964;28;20110;-47
2022/10/26 10:36:19;;;;;;;17.25;3.83;;;27.70;99.90;;;;;;5035687;28;20044;-46
2022/10/26 10:38:48;;;;;;;11.10;3.60;;;27.80;99.90;;;;;;5047565;28;20494;-48
2022/10/26 10:41:31;;;;;;;15.80;4.47;;;27.90;99.90;;;;;;5053079;28;20024;-46
2022/10/26 10:44:21;;;;;;;23.70;4.32;;;27.90;99.90;;;;;;5042769;28;20349;-46
2022/10/26 10:46:47;;;;;;;21.30;4.55;;;28.10;99.90;;;;;;5052271;28;20409;-46
2022/10/26 10:49:24;;;;;;;27.95;6.18;;;28.10;99.90;;;;;;5052955;28;20021;-46
2022/10/26 10:51:50;;;;;;;36.03;6.97;;;28.20;99.90;;;;;;5052732;28;20173;-46
2022/10/26 10:54:26;;;;;;;19.58;5.53;;;28.20;99.90;;;;;;5053065;28;20029;-46
2022/10/26 10:57:04;;;;;;;13.63;5.10;;;28.20;99.90;;;;;;5033956;28;20033;-46
2022/10/26 10:59:54;;;;;;;19.25;4.97;;;28.30;99.90;;;;;;5053064;28;20029;-47
2022/10/26 11:02:44;;;;;;;14.35;4.43;;;28.30;99.90;;;;;;5053107;28;20036;-46
2022/10/26 11:05:21;;;;;;;33.42;9.60;;;28.40;99.90;;;;;;5052987;28;20110;-46
2022/10/26 11:08:14;;;;;;;26.35;6.93;;;28.50;99.90;;;;;;5052922;28;20025;-46
2022/10/26 11:10:51;;;;;;;16.75;4.85;;;28.50;99.90;;;;;;5052543;28;20091;-51
2022/10/26 11:13:47;;;;;;;18.95;4.25;;;28.60;99.90;;;;;;5019542;28;20021;-49
2022/10/26 11:16:20;;;;;;;19.17;4.20;;;28.70;99.90;;;;;;5052772;28;20065;-46
2022/10/26 11:18:55;;;;;;;115.20;25.33;;;28.80;99.90;;;;;;5052722;28;20021;-46
2022/10/26 11:21:33;;;;;;;35.45;10.57;;;28.90;99.90;;;;;;5052695;28;20071;-52
2022/10/26 11:24:25;;;;;;;25.70;6.25;;;29.00;99.90;;;;;;5034803;28;20086;-53
2022/10/26 11:26:59;;;;;;;17.58;4.82;;;29.00;99.90;;;;;;5049098;28;20033;-46
2022/10/26 11:29:45;;;;;;;23.45;4.30;;;29.10;99.90;;;;;;5051108;28;20096;-46
2022/10/26 11:32:33;;;;;;;46.25;6.57;;;29.20;99.90;;;;;;5032693;28;20484;-46
2022/10/26 11:35:21;;;;;;;21.33;5.57;;;29.20;99.90;;;;;;5032961;28;20017;-46
2022/10/26 11:38:11;;;;;;;18.58;5.65;;;29.20;99.90;;;;;;5032565;28;20044;-46
2022/10/26 11:40:52;;;;;;;19.45;4.38;;;29.20;99.90;;;;;;5032493;28;20051;-46
2022/10/26 11:43:39;;;;;;;13.55;3.80;;;29.20;99.90;;;;;;5043620;28;20021;-46
2022/10/26 11:46:07;;;;;;;;;;;29.20;99.90;;;;;;5046581;28;20025;-47
2022/10/26 11:48:42;;;;;;;29.23;4.32;;;29.20;99.90;;;;;;5049931;28;19996;-46
2022/10/26 11:51:33;;;;;;;25.35;4.22;;;29.30;99.90;;;;;;5052349;28;20052;-46
2022/10/26 11:54:08;;;;;;;22.92;4.55;;;29.30;99.90;;;;;;5038291;28;20037;-46
2022/10/26 11:56:45;;;;;;;18.23;4.22;;;29.30;99.90;;;;;;5052183;28;20395;-46
2022/10/26 11:59:20;;;;;;;19.58;4.18;;;29.40;99.90;;;;;;5052229;28;20025;-46
2022/10/26 12:01:51;;;;;;;19.58;4.25;;;29.40;99.90;;;;;;5052046;28;20045;-46
2022/10/26 12:04:20;;;;;;;20.52;4.25;;;29.40;99.90;;;;;;5050803;28;20729;-45
2022/10/26 12:06:49;;;;;;;23.80;4.70;;;29.40;99.90;;;;;;5049476;28;20080;-49
2022/10/26 12:09:20;;;;;;;15.73;4.75;;;29.30;99.90;;;;;;5049653;28;20021;-46
2022/10/26 12:11:53;;;;;;;21.08;7.30;;;29.20;99.90;;;;;;5050867;28;20096;-48
2022/10/26 12:14:46;;;;;;;17.17;6.65;;;29.20;99.90;;;;;;5032221;28;20029;-48
2022/10/26 12:17:42;;;;;;;23.55;9.63;;;29.10;99.90;;;;;;5048520;28;20067;-49
2022/10/26 12:20:38;;;;;;;18.05;6.97;;;29.00;99.90;;;;;;5025050;28;20131;-48
2022/10/26 12:23:06;;;;;;;24.73;9.60;;;28.90;99.90;;;;;;5050013;28;20021;-48
2022/10/26 12:25:32;;;;;;;31.10;16.42;;;28.80;99.90;;;;;;5049126;28;20024;-49
2022/10/26 12:27:59;;;;;;;31.40;6.18;;;28.80;99.90;;;;;;5049805;28;20021;-49
2022/10/26 12:30:28;;;;;;;18.60;4.68;;;28.80;99.90;;;;;;5049778;28;20025;-49
2022/10/26 12:32:59;;;;;;;17.17;4.97;;;28.80;99.90;;;;;;5046544;28;20025;-49
2022/10/26 12:35:44;;;;;;;20.63;4.85;;;28.70;99.90;;;;;;5049962;28;20075;-48
2022/10/26 12:38:24;;;;;;;16.20;5.00;;;28.70;99.90;;;;;;5049049;28;20646;-48
2022/10/26 12:41:06;;;;;;;19.10;5.70;;;28.60;99.90;;;;;;5051869;28;20020;-48
2022/10/26 12:43:39;;;;;;;20.17;9.65;;;28.50;99.90;;;;;;5060919;28;20020;-49
2022/10/26 12:46:11;;;;;;;23.48;9.82;;;28.40;99.90;;;;;;5059164;28;20017;-49
2022/10/26 12:48:45;;;;;;;22.98;6.53;;;28.30;99.90;;;;;;5058298;28;20066;-49
2022/10/26 12:51:20;;;;;;;20.10;6.88;;;28.30;99.90;;;;;;5054074;28;20029;-48
2022/10/26 12:54:23;;;;;;;17.55;7.65;;;28.20;99.90;;;;;;5032349;28;20465;-48
2022/10/26 12:57:06;;;;;;;16.58;6.78;;;28.20;99.90;;;;;;5020759;28;20180;-48
2022/10/26 12:59:41;;;;;;;19.42;4.50;;;28.20;99.90;;;;;;5051343;28;20063;-48
2022/10/26 13:02:09;;;;;;;19.17;5.82;;;28.10;99.90;;;;;;5051686;28;20040;-49
2022/10/26 13:04:50;;;;;;;15.23;4.85;;;28.00;99.90;;;;;;5051565;28;20017;-47
2022/10/26 13:07:32;;;;;;;29.60;5.47;;;27.90;99.90;;;;;;5033622;28;20029;-48
2022/10/26 13:10:10;;;;;;;19.48;5.15;;;27.80;99.90;;;;;;5051607;28;20036;-47